createdAt,value
2023-05-17T00:01:58.149Z,14.00
2023-05-17T00:04:27.933Z,14.01
2023-05-17T00:06:57.365Z,14.02
2023-05-17T00:09:26.777Z,14.03
2023-05-17T00:11:56.275Z,14.03
2023-05-17T00:14:25.978Z,14.06
2023-05-17T00:16:55.299Z,14.07
2023-05-17T00:19:25.425Z,14.06
2023-05-17T00:21:54.812Z,14.06
2023-05-17T00:24:24.190Z,14.05
2023-05-17T00:26:53.715Z,14.03
2023-05-17T00:29:23.236Z,14.01
2023-05-17T00:31:53.014Z,14.01
2023-05-17T00:34:22.422Z,13.99
2023-05-17T00:36:52.209Z,13.96
2023-05-17T00:39:21.554Z,13.93
2023-05-17T00:41:50.852Z,13.90
2023-05-17T00:44:20.468Z,13.87
2023-05-17T00:46:50.641Z,13.86
2023-05-17T00:49:20.201Z,13.86
2023-05-17T00:51:49.555Z,13.84
2023-05-17T00:54:19.525Z,13.84
2023-05-17T00:56:50.049Z,13.83
2023-05-17T00:59:21.693Z,13.82
2023-05-17T01:01:52.562Z,13.81
2023-05-17T01:04:21.944Z,13.80
2023-05-17T01:06:51.638Z,13.79
2023-05-17T01:09:21.406Z,13.80
2023-05-17T01:12:17.077Z,13.81
2023-05-17T01:15:28.116Z,13.82
2023-05-17T01:18:15.956Z,13.84
2023-05-17T01:20:47.715Z,13.87
2023-05-17T01:23:45.118Z,13.89
2023-05-17T01:26:23.692Z,13.90
2023-05-17T01:28:56.557Z,13.91
2023-05-17T01:31:27.239Z,13.90
2023-05-17T01:33:59.176Z,13.90
2023-05-17T01:36:30.981Z,13.92
2023-05-17T01:39:01.911Z,13.92
2023-05-17T01:41:43.288Z,13.92
2023-05-17T01:44:21.796Z,13.91
2023-05-17T01:46:57.813Z,13.92
2023-05-17T01:49:40.225Z,13.92
2023-05-17T01:52:17.249Z,13.93
2023-05-17T01:55:00.579Z,13.91
2023-05-17T01:57:35.821Z,13.90
2023-05-17T02:00:09.521Z,13.91
2023-05-17T02:02:47.944Z,13.91
2023-05-17T02:05:17.442Z,13.90
2023-05-17T02:07:46.951Z,13.88
2023-05-17T02:10:16.367Z,13.85
2023-05-17T02:12:45.975Z,13.84
2023-05-17T02:15:16.748Z,13.81
2023-05-17T02:17:47.005Z,13.79
2023-05-17T02:20:17.746Z,13.77
2023-05-17T02:22:47.422Z,13.77
2023-05-17T02:25:17.001Z,13.78
2023-05-17T02:27:46.319Z,13.79
2023-05-17T02:30:18.355Z,13.80
2023-05-17T02:32:48.677Z,13.80
2023-05-17T02:35:17.992Z,13.81
2023-05-17T02:37:47.783Z,13.81
2023-05-17T02:40:17.695Z,13.82
2023-05-17T02:42:46.908Z,13.81
2023-05-17T02:45:16.507Z,13.82
2023-05-17T02:47:45.898Z,13.82
2023-05-17T02:50:15.797Z,13.80
2023-05-17T02:52:45.349Z,13.78
2023-05-17T02:55:15.027Z,13.76
2023-05-17T02:57:44.637Z,13.75
2023-05-17T03:00:15.204Z,13.71
2023-05-17T03:02:44.483Z,13.67
2023-05-17T03:05:14.284Z,13.64
2023-05-17T03:07:48.643Z,13.63
2023-05-17T03:10:18.006Z,13.61
2023-05-17T03:12:48.292Z,13.59
2023-05-17T03:15:21.025Z,13.62
2023-05-17T03:17:50.608Z,13.64
2023-05-17T03:20:20.539Z,13.69
2023-05-17T03:22:51.257Z,13.75
2023-05-17T03:25:20.458Z,13.81
2023-05-17T03:27:50.286Z,13.88
2023-05-17T03:30:20.851Z,13.93
2023-05-17T03:32:50.711Z,13.98
2023-05-17T03:35:20.527Z,14.02
2023-05-17T03:37:54.364Z,14.04
2023-05-17T03:40:23.629Z,14.06
2023-05-17T03:42:54.367Z,14.08
2023-05-17T03:45:24.083Z,14.10
2023-05-17T03:47:53.726Z,14.09
2023-05-17T03:50:23.618Z,14.08
2023-05-17T03:52:53.082Z,14.12
2023-05-17T03:55:22.927Z,14.18
2023-05-17T03:57:52.426Z,14.27
2023-05-17T04:00:22.292Z,14.38
2023-05-17T04:02:52.957Z,14.50
2023-05-17T04:05:22.387Z,14.64
2023-05-17T04:07:52.810Z,14.76
2023-05-17T04:10:22.832Z,14.83
2023-05-17T04:12:53.249Z,14.86
2023-05-17T04:15:22.870Z,14.89
2023-05-17T04:17:52.053Z,14.89
2023-05-17T04:20:22.121Z,14.91
2023-05-17T04:22:52.076Z,14.94
2023-05-17T04:25:22.833Z,14.95
2023-05-17T04:27:52.346Z,14.97
2023-05-17T04:30:22.191Z,15.00
2023-05-17T04:32:51.988Z,15.02
2023-05-17T04:35:21.846Z,15.04
2023-05-17T04:37:53.889Z,15.06
2023-05-17T04:40:24.983Z,15.09
2023-05-17T04:42:54.588Z,15.12
2023-05-17T04:45:24.298Z,15.14
2023-05-17T04:47:54.404Z,15.10
2023-05-17T04:50:23.975Z,15.05
2023-05-17T04:52:53.486Z,15.01
2023-05-17T04:55:23.456Z,14.98
2023-05-17T04:57:53.116Z,14.99
2023-05-17T05:00:24.060Z,14.98
2023-05-17T05:02:59.673Z,15.00
2023-05-17T05:05:29.202Z,15.03
2023-05-17T05:07:59.177Z,15.07
2023-05-17T05:10:29.812Z,15.12
2023-05-17T05:13:00.127Z,15.18
2023-05-17T05:15:32.087Z,15.22
2023-05-17T05:18:02.370Z,15.26
2023-05-17T05:20:33.149Z,15.29
2023-05-17T05:23:06.140Z,15.27
2023-05-17T05:25:38.418Z,15.27
2023-05-17T05:28:10.668Z,15.25
2023-05-17T05:30:41.204Z,15.22
2023-05-17T05:33:10.927Z,15.17
2023-05-17T05:35:41.454Z,15.14
2023-05-17T05:38:10.890Z,15.12
2023-05-17T05:40:40.260Z,15.09
2023-05-17T05:43:09.745Z,15.08
2023-05-17T05:45:41.428Z,15.06
2023-05-17T05:48:10.711Z,15.04
2023-05-17T05:50:45.139Z,15.02
2023-05-17T05:53:18.939Z,14.97
2023-05-17T05:55:58.789Z,14.95
2023-05-17T05:58:30.161Z,14.95
2023-05-17T06:01:00.462Z,14.93
2023-05-17T06:03:30.274Z,14.96
2023-05-17T06:05:59.940Z,14.99
2023-05-17T06:08:29.694Z,15.03
2023-05-17T06:10:59.403Z,15.04
2023-05-17T06:13:28.913Z,15.07
2023-05-17T06:15:59.853Z,15.08
2023-05-17T06:18:29.656Z,15.11
2023-05-17T06:20:59.397Z,15.12
2023-05-17T06:23:28.679Z,15.12
2023-05-17T06:25:58.104Z,15.14
2023-05-17T06:28:27.482Z,15.17
2023-05-17T06:30:56.686Z,15.21
2023-05-17T06:33:26.796Z,15.23
2023-05-17T06:35:58.197Z,15.26
2023-05-17T06:38:27.850Z,15.28
2023-05-17T06:40:58.674Z,15.31
2023-05-17T06:43:28.095Z,15.32
2023-05-17T06:45:57.815Z,15.34
2023-05-17T06:48:27.426Z,15.39
2023-05-17T06:50:57.087Z,15.43
2023-05-17T06:53:27.652Z,15.47
2023-05-17T06:55:57.003Z,15.51
2023-05-17T06:58:26.865Z,15.56
2023-05-17T07:00:56.401Z,15.57
2023-05-17T07:03:26.597Z,15.61
2023-05-17T07:05:56.510Z,15.63
2023-05-17T07:08:26.131Z,15.66
2023-05-17T07:10:55.728Z,15.69
2023-05-17T07:13:25.028Z,15.69
2023-05-17T07:15:54.967Z,15.67
2023-05-17T07:18:24.367Z,15.67
2023-05-17T07:20:54.177Z,15.67
2023-05-17T07:23:23.571Z,15.67
2023-05-17T07:25:52.919Z,15.67
2023-05-17T07:28:22.782Z,15.67
2023-05-17T07:30:52.534Z,15.70
2023-05-17T07:33:22.158Z,15.73
2023-05-17T07:35:51.545Z,15.78
2023-05-17T07:38:21.212Z,15.87
2023-05-17T07:40:51.570Z,15.99
2023-05-17T07:43:23.911Z,16.16
2023-05-17T07:45:53.187Z,16.41
2023-05-17T07:48:24.984Z,16.79
2023-05-17T07:50:55.036Z,17.19
2023-05-17T07:53:24.515Z,17.51
2023-05-17T07:55:54.205Z,17.70
2023-05-17T07:58:23.711Z,17.80
2023-05-17T08:00:53.625Z,17.87
2023-05-17T08:03:23.142Z,17.89
2023-05-17T08:05:52.554Z,17.89
2023-05-17T08:08:22.147Z,17.87
2023-05-17T08:10:51.631Z,17.81
2023-05-17T08:13:20.830Z,17.72
2023-05-17T08:15:53.660Z,17.61
2023-05-17T08:18:27.920Z,17.55
2023-05-17T08:20:58.068Z,17.45
2023-05-17T08:23:27.467Z,17.36
2023-05-17T08:25:56.863Z,17.25
2023-05-17T08:28:26.448Z,17.17
2023-05-17T08:30:55.989Z,17.05
2023-05-17T08:33:26.409Z,16.96
2023-05-17T08:35:58.073Z,16.92
2023-05-17T08:38:27.352Z,16.87
2023-05-17T08:40:57.054Z,16.78
2023-05-17T08:43:27.883Z,16.70
2023-05-17T08:45:58.355Z,16.63
2023-05-17T08:48:31.530Z,16.53
2023-05-17T08:51:04.124Z,16.45
2023-05-17T08:53:35.765Z,16.41
2023-05-17T08:56:07.211Z,16.36
2023-05-17T08:58:52.355Z,16.30
2023-05-17T09:01:27.909Z,16.25
2023-05-17T09:03:59.543Z,16.23
2023-05-17T09:06:32.775Z,16.23
2023-05-17T09:09:02.277Z,16.22
2023-05-17T09:11:35.413Z,16.24
2023-05-17T09:14:07.290Z,16.22
2023-05-17T09:16:38.057Z,16.20
2023-05-17T09:19:09.734Z,16.22
2023-05-17T09:21:39.134Z,16.26
2023-05-17T09:24:08.801Z,16.29
2023-05-17T09:26:46.509Z,16.32
2023-05-17T09:29:16.933Z,16.38
2023-05-17T09:31:46.408Z,16.42
2023-05-17T09:34:19.794Z,16.48
2023-05-17T09:36:49.898Z,16.59
2023-05-17T09:39:19.507Z,16.63
2023-05-17T09:41:50.247Z,16.67
2023-05-17T09:44:19.477Z,16.74
2023-05-17T09:46:49.349Z,16.74
2023-05-17T09:49:18.825Z,16.76
2023-05-17T09:51:49.771Z,16.79
2023-05-17T09:54:19.604Z,16.80
2023-05-17T09:56:55.946Z,16.85
2023-05-17T09:59:28.866Z,16.92
2023-05-17T10:02:00.557Z,16.94
2023-05-17T10:04:32.886Z,17.01
2023-05-17T10:07:02.301Z,17.10
2023-05-17T10:09:35.909Z,17.18
2023-05-17T10:12:08.091Z,17.30
2023-05-17T10:14:38.682Z,17.41
2023-05-17T10:17:09.267Z,17.50
2023-05-17T10:19:39.270Z,17.53
2023-05-17T10:22:21.717Z,17.54
2023-05-17T10:24:52.509Z,17.58
2023-05-17T10:27:22.402Z,17.60
2023-05-17T10:29:54.243Z,17.63
2023-05-17T10:32:27.240Z,17.67
2023-05-17T10:35:09.153Z,17.72
2023-05-17T10:37:41.778Z,17.78
2023-05-17T10:40:13.926Z,17.87
2023-05-17T10:42:50.969Z,17.95
2023-05-17T10:45:25.815Z,18.07
2023-05-17T10:47:56.750Z,18.14
2023-05-17T10:50:28.215Z,18.18
2023-05-17T10:52:59.169Z,18.20
2023-05-17T10:55:42.736Z,18.28
2023-05-17T10:58:20.178Z,18.43
2023-05-17T11:00:55.749Z,18.57
2023-05-17T11:03:30.325Z,18.73
2023-05-17T11:06:24.501Z,18.87
2023-05-17T11:09:32.645Z,18.99
2023-05-17T11:12:13.966Z,19.07
2023-05-17T11:14:47.917Z,19.14
2023-05-17T11:17:24.952Z,19.17
2023-05-17T11:20:13.608Z,19.17
2023-05-17T11:23:07.875Z,19.16
2023-05-17T11:25:39.699Z,19.20
2023-05-17T11:28:19.548Z,19.26
2023-05-17T11:30:52.464Z,19.34
2023-05-17T11:33:46.601Z,19.44
2023-05-17T11:36:22.152Z,19.61
2023-05-17T11:39:12.207Z,19.87
2023-05-17T11:41:50.257Z,20.22
2023-05-17T11:44:35.214Z,20.52
2023-05-17T11:47:09.924Z,20.80
2023-05-17T11:49:40.427Z,21.05
2023-05-17T11:52:10.601Z,21.26
2023-05-17T11:54:40.708Z,21.45
2023-05-17T11:57:13.298Z,21.61
2023-05-17T11:59:45.881Z,21.79
2023-05-17T12:02:30.644Z,21.95
2023-05-17T12:05:00.157Z,22.13
2023-05-17T12:07:30.781Z,22.27
2023-05-17T12:10:00.225Z,22.36
2023-05-17T12:12:29.668Z,22.44
2023-05-17T12:14:59.298Z,22.42
2023-05-17T12:17:37.889Z,22.38
2023-05-17T12:20:11.118Z,22.39
2023-05-17T12:22:57.380Z,22.44
2023-05-17T12:25:29.515Z,22.40
2023-05-17T12:28:23.045Z,22.41
2023-05-17T12:30:58.014Z,22.40
2023-05-17T12:33:28.866Z,22.50
2023-05-17T12:35:59.274Z,22.56
2023-05-17T12:38:33.189Z,22.65
2023-05-17T12:41:04.879Z,22.81
2023-05-17T12:43:36.481Z,22.96
2023-05-17T12:46:20.729Z,23.10
2023-05-17T12:48:52.416Z,23.13
2023-05-17T12:51:23.891Z,23.12
2023-05-17T12:53:59.946Z,23.18
2023-05-17T12:56:30.702Z,23.24
2023-05-17T12:59:13.443Z,23.28
2023-05-17T13:01:56.026Z,23.29
2023-05-17T13:04:36.986Z,23.24
2023-05-17T13:07:06.575Z,23.15
2023-05-17T13:09:48.616Z,23.09
2023-05-17T13:12:25.201Z,23.07
2023-05-17T13:14:55.171Z,23.06
2023-05-17T13:17:37.298Z,23.01
2023-05-17T13:20:10.574Z,22.92
2023-05-17T13:22:47.452Z,22.88
2023-05-17T13:25:16.788Z,22.80
2023-05-17T13:27:49.056Z,22.68
2023-05-17T13:30:18.247Z,22.53
2023-05-17T13:32:47.687Z,22.39
2023-05-17T13:35:17.064Z,22.25
2023-05-17T13:37:46.287Z,22.13
2023-05-17T13:40:16.287Z,22.03
2023-05-17T13:42:45.676Z,21.91
2023-05-17T13:45:15.082Z,21.80
2023-05-17T13:47:44.893Z,21.71
2023-05-17T13:50:17.583Z,21.62
2023-05-17T13:52:47.000Z,21.52
2023-05-17T13:55:16.310Z,21.47
2023-05-17T13:57:46.102Z,21.43
2023-05-17T14:00:16.386Z,21.39
2023-05-17T14:02:45.571Z,21.34
2023-05-17T14:05:15.745Z,21.29
2023-05-17T14:07:46.115Z,21.24
2023-05-17T14:10:15.325Z,21.20
2023-05-17T14:12:44.765Z,21.16
2023-05-17T14:15:14.304Z,21.12
2023-05-17T14:17:43.745Z,21.08
2023-05-17T14:20:14.485Z,21.03
2023-05-17T14:22:43.937Z,21.00
2023-05-17T14:25:13.161Z,20.99
2023-05-17T14:27:43.540Z,20.99
2023-05-17T14:30:14.812Z,20.96
2023-05-17T14:32:44.838Z,20.93
2023-05-17T14:35:16.620Z,20.92
2023-05-17T14:37:45.871Z,20.93
2023-05-17T14:40:15.270Z,20.94
2023-05-17T14:42:44.557Z,20.92
2023-05-17T14:45:13.872Z,20.89
2023-05-17T14:47:43.687Z,20.85
2023-05-17T14:50:13.181Z,20.81
2023-05-17T14:52:42.383Z,20.76
2023-05-17T14:55:12.345Z,20.71
2023-05-17T14:57:42.055Z,20.66
2023-05-17T15:00:12.432Z,20.61
2023-05-17T15:02:41.827Z,20.58
2023-05-17T15:05:11.691Z,20.53
2023-05-17T15:07:40.970Z,20.49
2023-05-17T15:10:13.232Z,20.45
2023-05-17T15:12:42.827Z,20.41
2023-05-17T15:15:12.846Z,20.38
2023-05-17T15:17:42.910Z,20.34
2023-05-17T15:20:13.685Z,20.29
2023-05-17T15:22:43.106Z,20.26
2023-05-17T15:25:12.536Z,20.23
2023-05-17T15:27:41.944Z,20.19
2023-05-17T15:30:13.554Z,20.16
2023-05-17T15:32:43.085Z,20.13
2023-05-17T15:35:12.672Z,20.11
2023-05-17T15:37:42.029Z,20.09
2023-05-17T15:40:12.307Z,20.07
2023-05-17T15:42:41.608Z,20.03
2023-05-17T15:45:11.973Z,20.01
2023-05-17T15:47:43.475Z,19.98
2023-05-17T15:50:14.072Z,19.94
2023-05-17T15:52:43.519Z,19.92
2023-05-17T15:55:13.536Z,19.90
2023-05-17T15:57:43.060Z,19.86
2023-05-17T16:00:13.535Z,19.83
2023-05-17T16:02:43.163Z,19.81
2023-05-17T16:05:12.690Z,19.79
2023-05-17T16:07:42.299Z,19.76
2023-05-17T16:10:12.002Z,19.73
2023-05-17T16:12:41.299Z,19.69
2023-05-17T16:15:11.860Z,19.66
2023-05-17T16:17:41.091Z,19.63
2023-05-17T16:20:12.283Z,19.59
2023-05-17T16:22:46.523Z,19.56
2023-05-17T16:25:19.986Z,19.52
2023-05-17T16:27:49.437Z,19.49
2023-05-17T16:30:19.309Z,19.46
2023-05-17T16:32:48.659Z,19.41
2023-05-17T16:35:22.213Z,19.39
2023-05-17T16:37:51.935Z,19.34
2023-05-17T16:40:21.257Z,19.32
2023-05-17T16:42:50.646Z,19.29
2023-05-17T16:45:21.157Z,19.24
2023-05-17T16:47:51.514Z,19.21
2023-05-17T16:50:21.011Z,19.17
2023-05-17T16:52:50.516Z,19.12
2023-05-17T16:55:19.796Z,19.09
2023-05-17T16:57:49.161Z,19.04
2023-05-17T17:00:20.315Z,19.01
2023-05-17T17:02:49.623Z,18.97
2023-05-17T17:05:20.497Z,18.90
2023-05-17T17:07:50.167Z,18.87
2023-05-17T17:10:20.553Z,18.82
2023-05-17T17:12:50.380Z,18.77
2023-05-17T17:15:19.980Z,18.74
2023-05-17T17:17:49.615Z,18.71
2023-05-17T17:20:19.163Z,18.69
2023-05-17T17:22:48.659Z,18.67
2023-05-17T17:25:19.307Z,18.65
2023-05-17T17:27:48.555Z,18.61
2023-05-17T17:30:17.685Z,18.57
2023-05-17T17:32:47.015Z,18.53
2023-05-17T17:35:16.500Z,18.49
2023-05-17T17:37:45.804Z,18.43
2023-05-17T17:40:15.500Z,18.38
2023-05-17T17:42:44.935Z,18.34
2023-05-17T17:45:16.859Z,18.29
2023-05-17T17:47:46.015Z,18.24
2023-05-17T17:50:15.678Z,18.20
2023-05-17T17:52:44.977Z,18.16
2023-05-17T17:55:15.506Z,18.12
2023-05-17T17:57:45.928Z,18.07
2023-05-17T18:00:16.520Z,18.04
2023-05-17T18:02:46.191Z,18.01
2023-05-17T18:05:16.618Z,17.98
2023-05-17T18:07:48.152Z,17.95
2023-05-17T18:10:17.755Z,17.92
2023-05-17T18:12:47.534Z,17.89
2023-05-17T18:15:18.411Z,17.87
2023-05-17T18:17:51.477Z,17.84
2023-05-17T18:20:26.532Z,17.82
2023-05-17T18:22:56.250Z,17.79
2023-05-17T18:25:25.548Z,17.74
2023-05-17T18:27:55.053Z,17.71
2023-05-17T18:30:25.166Z,17.67
2023-05-17T18:32:54.508Z,17.64
2023-05-17T18:35:23.796Z,17.60
2023-05-17T18:37:53.437Z,17.56
2023-05-17T18:40:22.642Z,17.52
2023-05-17T18:42:53.220Z,17.49
2023-05-17T18:45:22.822Z,17.47
2023-05-17T18:47:52.393Z,17.45
2023-05-17T18:50:22.038Z,17.43
2023-05-17T18:52:51.535Z,17.40
2023-05-17T18:55:23.211Z,17.37
2023-05-17T18:57:52.493Z,17.35
2023-05-17T19:00:21.840Z,17.34
2023-05-17T19:02:51.244Z,17.33
2023-05-17T19:05:20.837Z,17.31
2023-05-17T19:07:50.307Z,17.29
2023-05-17T19:10:20.880Z,17.26
2023-05-17T19:12:50.125Z,17.23
2023-05-17T19:15:19.980Z,17.20
2023-05-17T19:17:49.216Z,17.15
2023-05-17T19:20:19.083Z,17.11
2023-05-17T19:22:48.235Z,17.07
2023-05-17T19:25:18.992Z,17.01
2023-05-17T19:27:50.143Z,16.94
2023-05-17T19:30:19.656Z,16.88
2023-05-17T19:32:49.972Z,16.81
2023-05-17T19:35:19.593Z,16.75
2023-05-17T19:37:48.887Z,16.68
2023-05-17T19:40:22.356Z,16.61
2023-05-17T19:42:51.460Z,16.55
2023-05-17T19:45:21.010Z,16.49
2023-05-17T19:47:50.734Z,16.43
2023-05-17T19:50:20.921Z,16.37
2023-05-17T19:52:50.481Z,16.32
2023-05-17T19:55:22.388Z,16.27
2023-05-17T19:57:52.091Z,16.23
2023-05-17T20:00:21.500Z,16.20
2023-05-17T20:02:51.414Z,16.17
2023-05-17T20:05:21.492Z,16.14
2023-05-17T20:07:50.899Z,16.12
2023-05-17T20:10:20.558Z,16.10
2023-05-17T20:12:49.957Z,16.09
2023-05-17T20:15:19.562Z,16.07
2023-05-17T20:17:49.761Z,16.05
2023-05-17T20:20:19.382Z,16.04
2023-05-17T20:22:48.680Z,16.01
2023-05-17T20:25:18.193Z,15.99
2023-05-17T20:27:47.588Z,15.99
2023-05-17T20:30:16.902Z,15.98
2023-05-17T20:32:46.049Z,15.97
2023-05-17T20:35:15.594Z,15.97
2023-05-17T20:37:45.007Z,15.96
2023-05-17T20:40:14.550Z,15.96
2023-05-17T20:42:46.094Z,15.96
2023-05-17T20:45:17.830Z,15.96
2023-05-17T20:47:47.353Z,15.97
2023-05-17T20:50:18.964Z,15.98
2023-05-17T20:52:50.228Z,15.98
2023-05-17T20:55:19.642Z,15.99
2023-05-17T20:57:49.134Z,15.98
2023-05-17T21:00:21.005Z,15.98
2023-05-17T21:02:50.568Z,15.97
2023-05-17T21:05:20.129Z,15.96
2023-05-17T21:07:50.604Z,15.95
2023-05-17T21:10:20.623Z,15.92
2023-05-17T21:12:50.166Z,15.87
2023-05-17T21:15:20.085Z,15.81
2023-05-17T21:17:49.684Z,15.77
2023-05-17T21:20:21.383Z,15.73
2023-05-17T21:22:52.591Z,15.69
2023-05-17T21:25:22.218Z,15.66
2023-05-17T21:27:51.590Z,15.64
2023-05-17T21:30:24.067Z,15.62
2023-05-17T21:32:53.526Z,15.61
2023-05-17T21:35:23.193Z,15.60
2023-05-17T21:37:52.285Z,15.60
2023-05-17T21:40:21.502Z,15.61
2023-05-17T21:42:50.968Z,15.58
2023-05-17T21:45:20.575Z,15.57
2023-05-17T21:47:49.730Z,15.55
2023-05-17T21:50:19.504Z,15.52
2023-05-17T21:52:48.822Z,15.50
2023-05-17T21:55:18.014Z,15.47
2023-05-17T21:57:47.401Z,15.43
2023-05-17T22:00:17.364Z,15.40
2023-05-17T22:02:47.607Z,15.36
2023-05-17T22:05:17.880Z,15.32
2023-05-17T22:07:47.378Z,15.29
2023-05-17T22:10:17.999Z,15.26
2023-05-17T22:12:50.442Z,15.24
2023-05-17T22:15:22.168Z,15.21
2023-05-17T22:17:52.955Z,15.19
2023-05-17T22:20:24.046Z,15.16
2023-05-17T22:22:53.443Z,15.15
2023-05-17T22:25:23.225Z,15.13
2023-05-17T22:27:52.730Z,15.12
2023-05-17T22:30:22.242Z,15.12
2023-05-17T22:32:54.881Z,15.13
2023-05-17T22:35:24.757Z,15.14
2023-05-17T22:37:54.219Z,15.16
2023-05-17T22:40:23.387Z,15.18
2023-05-17T22:42:52.647Z,15.20
2023-05-17T22:45:22.458Z,15.21
2023-05-17T22:47:52.804Z,15.22
2023-05-17T22:50:24.741Z,15.21
2023-05-17T22:52:53.966Z,15.18
2023-05-17T22:55:24.384Z,15.14
2023-05-17T22:57:54.028Z,15.10
2023-05-17T23:00:26.357Z,15.06
2023-05-17T23:02:55.856Z,15.01
2023-05-17T23:05:25.465Z,14.98
2023-05-17T23:07:55.788Z,14.94
2023-05-17T23:10:25.128Z,14.91
2023-05-17T23:12:58.182Z,14.88
2023-05-17T23:15:28.492Z,14.85
2023-05-17T23:17:59.837Z,14.83
2023-05-17T23:20:29.766Z,14.81
2023-05-17T23:22:59.889Z,14.80
2023-05-17T23:25:29.590Z,14.78
2023-05-17T23:27:59.217Z,14.77
2023-05-17T23:30:29.900Z,14.76
2023-05-17T23:33:00.357Z,14.76
2023-05-17T23:35:30.280Z,14.76
2023-05-17T23:37:59.983Z,14.76
2023-05-17T23:40:30.834Z,14.75
2023-05-17T23:43:00.880Z,14.76
2023-05-17T23:45:31.326Z,14.75
2023-05-17T23:48:02.282Z,14.75
2023-05-17T23:50:31.707Z,14.75
2023-05-17T23:53:03.549Z,14.74
2023-05-17T23:55:33.798Z,14.74
2023-05-17T23:58:03.402Z,14.75
